createdAt,value
2022-12-25T00:00:40.580Z,7.07
2022-12-25T00:03:43.451Z,6.35
2022-12-25T00:06:45.706Z,6.90
2022-12-25T00:09:48.131Z,7.12
2022-12-25T00:12:50.667Z,6.82
2022-12-25T00:15:53.127Z,7.37
2022-12-25T00:18:56.809Z,6.90
2022-12-25T00:21:59.197Z,6.95
2022-12-25T00:25:01.330Z,6.95
2022-12-25T00:28:03.907Z,7.10
2022-12-25T00:31:07.984Z,6.82
2022-12-25T00:34:10.440Z,7.80
2022-12-25T00:37:12.691Z,7.35
2022-12-25T00:40:15.223Z,6.57
2022-12-25T00:43:17.394Z,6.05
2022-12-25T00:46:19.994Z,6.82
2022-12-25T00:49:23.695Z,6.28
2022-12-25T00:52:26.352Z,6.53
2022-12-25T00:55:28.476Z,6.57
2022-12-25T00:58:32.795Z,6.32
2022-12-25T01:01:34.963Z,5.80
2022-12-25T01:04:37.544Z,6.47
2022-12-25T01:07:39.690Z,5.95
2022-12-25T01:10:42.119Z,6.18
2022-12-25T01:13:44.213Z,6.07
2022-12-25T01:16:46.742Z,6.32
2022-12-25T01:19:48.937Z,5.90
2022-12-25T01:22:51.323Z,6.57
2022-12-25T01:25:53.434Z,5.50
2022-12-25T01:28:56.243Z,4.37
2022-12-25T01:31:58.434Z,3.95
2022-12-25T01:35:00.845Z,3.55
2022-12-25T01:38:03.011Z,4.22
2022-12-25T01:41:05.449Z,4.05
2022-12-25T01:44:16.358Z,4.07
2022-12-25T01:47:18.939Z,3.62
2022-12-25T01:50:22.025Z,3.92
2022-12-25T01:53:26.286Z,3.92
2022-12-25T01:56:29.754Z,4.03
2022-12-25T01:59:32.368Z,4.00
2022-12-25T02:02:36.187Z,4.68
2022-12-25T02:05:38.755Z,4.45
2022-12-25T02:08:41.525Z,4.28
2022-12-25T02:11:57.262Z,4.15
2022-12-25T02:15:05.737Z,4.03
2022-12-25T02:18:27.000Z,4.60
2022-12-25T02:21:50.112Z,3.33
2022-12-25T02:25:04.760Z,3.78
2022-12-25T02:28:32.382Z,3.75
2022-12-25T02:31:59.300Z,2.80
2022-12-25T02:35:15.427Z,2.90
2022-12-25T02:39:04.201Z,2.83
2022-12-25T02:42:11.549Z,4.32
2022-12-25T02:45:38.159Z,4.35
2022-12-25T02:49:04.432Z,4.10
2022-12-25T02:52:33.237Z,4.45
2022-12-25T02:56:03.336Z,4.32
2022-12-25T02:59:25.588Z,4.60
2022-12-25T03:02:49.346Z,5.00
2022-12-25T03:06:13.172Z,5.20
2022-12-25T03:09:49.051Z,4.68
2022-12-25T03:13:27.767Z,3.90
2022-12-25T03:16:49.083Z,3.97
2022-12-25T03:20:09.975Z,3.80
2022-12-25T03:23:34.011Z,3.85
2022-12-25T03:26:54.844Z,3.47
2022-12-25T03:30:15.832Z,3.20
2022-12-25T03:33:45.784Z,4.10
2022-12-25T03:37:17.179Z,3.87
2022-12-25T03:41:09.567Z,3.42
2022-12-25T03:44:47.618Z,3.78
2022-12-25T03:48:18.651Z,3.12
2022-12-25T03:51:44.867Z,3.00
2022-12-25T03:55:09.239Z,2.65
2022-12-25T03:58:38.856Z,3.25
2022-12-25T04:02:00.352Z,2.50
2022-12-25T04:05:21.965Z,3.05
2022-12-25T04:08:43.200Z,2.40
2022-12-25T04:12:04.797Z,2.70
2022-12-25T04:15:26.157Z,3.00
2022-12-25T04:18:47.098Z,3.05
2022-12-25T04:22:08.056Z,2.47
2022-12-25T04:25:29.184Z,2.60
2022-12-25T04:28:49.962Z,2.25
2022-12-25T04:32:10.950Z,2.70
2022-12-25T04:35:31.759Z,2.05
2022-12-25T04:38:34.636Z,2.25
2022-12-25T04:41:36.800Z,2.50
2022-12-25T04:44:39.269Z,2.75
2022-12-25T04:47:41.375Z,2.17
2022-12-25T04:50:43.769Z,2.97
2022-12-25T04:53:47.489Z,2.90
2022-12-25T04:56:49.891Z,2.47
2022-12-25T04:59:51.996Z,2.70
2022-12-25T05:02:54.564Z,3.55
2022-12-25T05:05:57.094Z,2.62
2022-12-25T05:08:59.583Z,2.62
2022-12-25T05:12:01.746Z,2.90
2022-12-25T05:15:04.424Z,2.70
2022-12-25T05:18:06.741Z,3.08
2022-12-25T05:21:11.761Z,3.37
2022-12-25T05:24:13.945Z,2.45
2022-12-25T05:27:16.545Z,3.58
2022-12-25T05:30:18.684Z,3.87
2022-12-25T05:33:21.071Z,2.60
2022-12-25T05:36:23.790Z,3.42
2022-12-25T05:39:26.217Z,3.30
2022-12-25T05:42:28.418Z,3.10
2022-12-25T05:45:31.307Z,2.70
2022-12-25T05:48:35.610Z,2.67
2022-12-25T05:51:38.215Z,3.65
2022-12-25T05:54:40.375Z,2.55
2022-12-25T05:57:42.793Z,2.92
2022-12-25T06:00:44.951Z,2.80
2022-12-25T06:03:47.950Z,2.83
2022-12-25T06:06:50.403Z,3.20
2022-12-25T06:09:53.089Z,3.53
2022-12-25T06:12:55.304Z,4.25
2022-12-25T06:15:59.089Z,3.80
2022-12-25T06:19:01.290Z,4.20
2022-12-25T06:22:03.895Z,4.32
2022-12-25T06:25:06.634Z,4.10
2022-12-25T06:28:09.116Z,4.32
2022-12-25T06:31:17.123Z,4.22
2022-12-25T06:34:19.599Z,4.40
2022-12-25T06:37:21.727Z,4.78
2022-12-25T06:40:24.123Z,4.95
2022-12-25T06:43:26.225Z,4.57
2022-12-25T06:46:30.260Z,4.90
2022-12-25T06:49:32.529Z,5.32
2022-12-25T06:52:35.043Z,4.90
2022-12-25T06:55:37.373Z,4.47
2022-12-25T06:58:44.206Z,4.93
2022-12-25T07:01:50.371Z,4.87
2022-12-25T07:04:53.525Z,3.95
2022-12-25T07:07:55.767Z,4.60
2022-12-25T07:10:58.233Z,4.45
2022-12-25T07:14:00.456Z,4.37
2022-12-25T07:17:02.872Z,4.45
2022-12-25T07:20:06.910Z,5.03
2022-12-25T07:23:09.308Z,4.10
2022-12-25T07:26:12.339Z,4.60
2022-12-25T07:29:14.945Z,5.68
2022-12-25T07:32:17.271Z,4.47
2022-12-25T07:35:19.891Z,4.28
2022-12-25T07:38:22.043Z,5.03
2022-12-25T07:41:24.636Z,5.03
2022-12-25T07:44:29.761Z,4.95
2022-12-25T07:47:32.175Z,4.07
2022-12-25T07:50:34.417Z,4.70
2022-12-25T07:53:37.785Z,4.72
2022-12-25T07:56:39.931Z,4.32
2022-12-25T07:59:42.366Z,4.20
2022-12-25T08:02:44.915Z,5.30
2022-12-25T08:05:47.655Z,4.32
2022-12-25T08:08:49.863Z,5.28
2022-12-25T08:11:52.350Z,5.03
2022-12-25T08:14:54.521Z,6.20
2022-12-25T08:17:56.920Z,5.22
2022-12-25T08:21:06.364Z,4.95
2022-12-25T08:24:08.769Z,6.93
2022-12-25T08:27:10.935Z,5.72
2022-12-25T08:30:13.633Z,5.43
2022-12-25T08:33:15.781Z,5.62
2022-12-25T08:36:18.927Z,5.43
2022-12-25T08:39:21.100Z,5.55
2022-12-25T08:42:23.584Z,5.47
2022-12-25T08:45:31.208Z,6.10
2022-12-25T08:48:37.965Z,5.70
2022-12-25T08:51:40.260Z,6.03
2022-12-25T08:54:42.659Z,6.55
2022-12-25T08:57:44.819Z,6.25
2022-12-25T09:00:47.255Z,6.25
2022-12-25T09:03:49.449Z,5.82
2022-12-25T09:06:51.987Z,6.03
2022-12-25T09:09:54.116Z,6.30
2022-12-25T09:12:56.933Z,6.40
2022-12-25T09:15:59.679Z,7.00
2022-12-25T09:19:02.308Z,7.35
2022-12-25T09:22:04.745Z,7.37
2022-12-25T09:25:07.497Z,6.75
2022-12-25T09:28:09.609Z,8.63
2022-12-25T09:31:12.055Z,9.48
2022-12-25T09:34:18.875Z,9.93
2022-12-25T09:37:21.559Z,10.63
2022-12-25T09:40:28.360Z,9.50
2022-12-25T09:43:33.309Z,9.75
2022-12-25T09:47:10.386Z,9.02
2022-12-25T09:50:27.971Z,9.70
2022-12-25T09:53:44.521Z,7.18
2022-12-25T09:56:46.980Z,6.35
2022-12-25T09:59:49.164Z,4.70
2022-12-25T10:03:13.067Z,4.87
2022-12-25T10:06:18.718Z,3.92
2022-12-25T10:09:52.505Z,3.37
2022-12-25T10:13:22.766Z,3.62
2022-12-25T10:20:05.655Z,3.05
2022-12-25T10:23:22.711Z,4.22
2022-12-25T10:26:26.965Z,3.22
2022-12-25T10:29:32.655Z,2.12
2022-12-25T10:32:35.104Z,2.30
2022-12-25T10:35:37.852Z,2.67
2022-12-25T10:38:40.224Z,2.62
2022-12-25T10:42:10.984Z,2.92
2022-12-25T10:45:13.430Z,3.47
2022-12-25T10:48:27.735Z,2.33
2022-12-25T10:51:35.780Z,2.92
2022-12-25T10:54:37.924Z,2.42
2022-12-25T10:57:47.095Z,2.20
2022-12-25T11:00:55.286Z,2.10
2022-12-25T11:03:58.046Z,1.90
2022-12-25T11:07:22.305Z,1.73
2022-12-25T11:10:42.215Z,2.47
2022-12-25T11:13:50.895Z,2.17
2022-12-25T11:16:53.712Z,2.03
2022-12-25T11:19:58.536Z,1.55
2022-12-25T11:23:00.945Z,1.77
2022-12-25T11:26:08.107Z,1.90
2022-12-25T11:29:37.060Z,1.50
2022-12-25T11:32:48.629Z,1.58
2022-12-25T11:35:54.787Z,1.42
2022-12-25T11:39:16.531Z,1.23
2022-12-25T11:42:34.989Z,1.67
2022-12-25T11:46:18.361Z,1.92
2022-12-25T11:49:24.248Z,1.80
2022-12-25T11:52:32.057Z,2.25
2022-12-25T11:55:49.464Z,1.90
2022-12-25T11:59:01.515Z,1.75
2022-12-25T12:02:36.436Z,2.22
2022-12-25T12:05:53.286Z,1.58
2022-12-25T12:09:24.120Z,1.42
2022-12-25T12:12:46.810Z,1.15
2022-12-25T12:15:51.573Z,1.10
2022-12-25T12:18:54.017Z,1.35
2022-12-25T12:22:00.909Z,2.08
2022-12-25T12:25:07.127Z,4.28
2022-12-25T12:28:23.407Z,4.05
2022-12-25T12:31:38.972Z,4.05
2022-12-25T12:34:50.129Z,3.87
2022-12-25T12:37:56.674Z,4.60
2022-12-25T12:41:01.827Z,3.78
2022-12-25T12:44:05.537Z,3.30
2022-12-25T12:47:28.229Z,3.53
2022-12-25T12:50:35.407Z,3.10
2022-12-25T12:53:42.718Z,2.20
2022-12-25T12:56:59.844Z,2.50
2022-12-25T13:00:10.028Z,2.33
2022-12-25T13:03:38.199Z,2.00
2022-12-25T13:07:03.427Z,1.70
2022-12-25T13:10:35.343Z,2.10
2022-12-25T13:13:42.003Z,1.58
2022-12-25T13:16:47.363Z,1.95
2022-12-25T13:19:55.187Z,1.67
2022-12-25T13:22:57.637Z,2.25
2022-12-25T13:26:06.277Z,2.67
2022-12-25T13:29:22.895Z,2.65
2022-12-25T13:32:32.057Z,3.15
2022-12-25T13:35:35.166Z,2.15
2022-12-25T13:38:42.527Z,2.92
2022-12-25T13:42:09.370Z,3.20
2022-12-25T13:45:14.495Z,3.47
2022-12-25T13:48:20.081Z,4.00
2022-12-25T13:51:22.784Z,3.30
2022-12-25T13:54:26.842Z,4.62
2022-12-25T13:57:33.526Z,3.53
2022-12-25T14:00:46.471Z,3.72
2022-12-25T14:03:49.034Z,4.32
2022-12-25T14:06:52.466Z,4.47
2022-12-25T14:09:59.268Z,4.03
2022-12-25T14:13:05.464Z,4.75
2022-12-25T14:16:09.123Z,3.60
2022-12-25T14:19:22.915Z,4.10
2022-12-25T14:22:27.087Z,4.75
2022-12-25T14:25:33.398Z,4.62
2022-12-25T14:28:37.660Z,4.30
2022-12-25T14:31:40.353Z,4.57
2022-12-25T14:34:46.253Z,5.10
2022-12-25T14:37:54.680Z,4.80
2022-12-25T14:41:02.280Z,5.35
2022-12-25T14:44:24.639Z,5.32
2022-12-25T14:47:27.566Z,5.93
2022-12-25T14:50:32.039Z,5.55
2022-12-25T14:53:39.699Z,7.40
2022-12-25T14:56:48.195Z,6.75
2022-12-25T15:03:00.867Z,6.45
2022-12-25T15:06:06.424Z,7.68
2022-12-25T15:09:16.717Z,7.70
2022-12-25T15:12:19.176Z,8.65
2022-12-25T15:15:21.401Z,8.57
2022-12-25T15:18:26.379Z,9.05
2022-12-25T15:21:31.363Z,8.90
2022-12-25T15:24:33.811Z,9.23
2022-12-25T15:27:36.451Z,9.82
2022-12-25T15:30:39.367Z,8.40
2022-12-25T15:33:44.248Z,9.98
2022-12-25T15:36:53.770Z,9.20
2022-12-25T15:40:02.663Z,9.68
2022-12-25T15:43:11.308Z,8.82
2022-12-25T15:46:24.485Z,8.40
2022-12-25T15:49:27.150Z,8.90
2022-12-25T15:52:29.500Z,8.93
2022-12-25T15:55:32.088Z,9.65
2022-12-25T15:58:34.231Z,8.82
2022-12-25T16:01:36.771Z,9.05
2022-12-25T16:04:42.324Z,8.75
2022-12-25T16:07:44.465Z,8.98
2022-12-25T16:10:47.191Z,9.70
2022-12-25T16:13:49.413Z,10.25
2022-12-25T16:16:51.792Z,9.65
2022-12-25T16:19:53.906Z,9.20
2022-12-25T16:22:56.305Z,9.43
2022-12-25T16:25:58.689Z,10.45
2022-12-25T16:29:06.794Z,9.77
2022-12-25T16:32:11.629Z,9.38
2022-12-25T16:35:14.119Z,10.15
2022-12-25T16:38:16.251Z,11.48
2022-12-25T16:41:18.881Z,10.52
2022-12-25T16:44:21.092Z,9.38
2022-12-25T16:47:23.635Z,10.15
2022-12-25T16:50:25.876Z,9.98
2022-12-25T16:53:29.963Z,10.52
2022-12-25T16:56:32.438Z,10.20
2022-12-25T16:59:35.818Z,11.12
2022-12-25T17:02:38.101Z,11.68
2022-12-25T17:05:40.631Z,11.20
2022-12-25T17:08:43.544Z,11.30
2022-12-25T17:11:45.969Z,11.43
2022-12-25T17:14:48.102Z,11.15
2022-12-25T17:17:50.592Z,12.77
2022-12-25T17:20:53.900Z,11.85
2022-12-25T17:24:02.378Z,11.52
2022-12-25T17:27:08.556Z,12.18
2022-12-25T17:30:11.291Z,12.60
2022-12-25T17:33:13.393Z,11.70
2022-12-25T17:36:19.107Z,11.60
2022-12-25T17:39:21.264Z,12.00
2022-12-25T17:42:23.725Z,11.57
2022-12-25T17:45:25.944Z,12.00
2022-12-25T17:48:28.658Z,12.68
2022-12-25T17:51:31.669Z,12.15
2022-12-25T17:54:35.091Z,12.07
2022-12-25T17:57:37.216Z,12.55
2022-12-25T18:00:39.651Z,12.23
2022-12-25T18:03:43.727Z,13.07
2022-12-25T18:06:46.185Z,11.52
2022-12-25T18:09:48.570Z,12.27
2022-12-25T18:12:50.733Z,11.90
2022-12-25T18:15:53.148Z,12.40
2022-12-25T18:18:55.321Z,12.32
2022-12-25T18:21:57.755Z,10.98
2022-12-25T18:24:59.938Z,11.10
2022-12-25T18:28:02.915Z,13.35
2022-12-25T18:31:10.562Z,12.57
2022-12-25T18:34:13.195Z,11.05
2022-12-25T18:37:15.416Z,13.30
2022-12-25T18:40:17.940Z,12.23
2022-12-25T18:43:20.761Z,12.35
2022-12-25T18:46:43.184Z,11.40
2022-12-25T18:49:45.386Z,12.35
2022-12-25T18:52:51.556Z,12.30
2022-12-25T18:56:03.870Z,12.05
2022-12-25T18:59:06.359Z,12.10
2022-12-25T19:02:12.074Z,12.48
2022-12-25T19:05:15.678Z,11.50
2022-12-25T19:08:17.844Z,11.80
2022-12-25T19:11:21.227Z,12.37
2022-12-25T19:14:24.315Z,12.15
2022-12-25T19:17:31.968Z,10.88
2022-12-25T19:20:34.499Z,11.88
2022-12-25T19:23:38.268Z,12.05
2022-12-25T19:26:40.483Z,13.00
2022-12-25T19:29:42.927Z,11.50
2022-12-25T19:32:45.091Z,11.38
2022-12-25T19:35:48.906Z,12.50
2022-12-25T19:38:51.116Z,12.02
2022-12-25T19:41:53.513Z,11.02
2022-12-25T19:44:55.936Z,12.07
2022-12-25T19:47:58.441Z,10.75
2022-12-25T19:51:00.778Z,10.90
2022-12-25T19:54:04.948Z,10.93
2022-12-25T19:57:07.139Z,11.30
2022-12-25T20:00:09.977Z,12.02
2022-12-25T20:03:15.452Z,12.05
2022-12-25T20:06:27.829Z,12.32
2022-12-25T20:09:30.999Z,12.23
2022-12-25T20:12:33.413Z,11.45
2022-12-25T20:15:35.673Z,12.02
2022-12-25T20:18:39.221Z,12.65
2022-12-25T20:21:41.608Z,12.50
2022-12-25T20:24:44.436Z,11.23
2022-12-25T20:27:46.952Z,10.93
2022-12-25T20:30:49.405Z,10.85
2022-12-25T20:33:51.551Z,10.82
2022-12-25T20:36:54.000Z,11.75
2022-12-25T20:39:56.332Z,12.13
2022-12-25T20:42:58.724Z,11.73
2022-12-25T20:46:00.963Z,11.63
2022-12-25T20:49:04.293Z,12.90
2022-12-25T20:52:06.693Z,12.23
2022-12-25T20:55:09.153Z,14.05
2022-12-25T20:58:11.786Z,11.48
2022-12-25T21:01:18.464Z,12.55
2022-12-25T21:04:20.740Z,11.60
2022-12-25T21:07:23.154Z,12.15
2022-12-25T21:10:25.276Z,11.98
2022-12-25T21:13:30.181Z,11.90
2022-12-25T21:16:33.181Z,11.05
2022-12-25T21:19:35.780Z,9.95
2022-12-25T21:22:37.931Z,10.73
2022-12-25T21:25:40.388Z,9.70
2022-12-25T21:28:42.668Z,9.32
2022-12-25T21:32:03.609Z,9.07
2022-12-25T21:35:06.074Z,10.48
2022-12-25T21:38:08.515Z,9.95
2022-12-25T21:41:12.862Z,11.00
2022-12-25T21:44:15.311Z,9.93
2022-12-25T21:47:17.499Z,10.73
2022-12-25T21:50:39.516Z,10.18
2022-12-25T21:53:41.754Z,9.68
2022-12-25T21:56:47.279Z,9.60
2022-12-25T21:59:49.504Z,9.70
2022-12-25T22:02:52.102Z,9.20
2022-12-25T22:06:21.176Z,8.52
2022-12-25T22:09:24.058Z,9.85
2022-12-25T22:12:44.923Z,9.07
2022-12-25T22:16:05.791Z,9.10
2022-12-25T22:19:26.720Z,8.75
2022-12-25T22:22:30.067Z,9.13
2022-12-25T22:25:32.615Z,9.88
2022-12-25T22:28:34.756Z,9.60
2022-12-25T22:31:42.618Z,9.75
2022-12-25T22:34:48.479Z,9.75
2022-12-25T22:37:51.211Z,9.38
2022-12-25T22:40:53.401Z,9.38
2022-12-25T22:47:17.950Z,9.10
2022-12-25T22:50:20.429Z,9.90
2022-12-25T22:53:22.666Z,8.30
2022-12-25T22:56:25.177Z,9.15
2022-12-25T22:59:27.868Z,9.18
2022-12-25T23:02:30.516Z,9.80
2022-12-25T23:05:32.898Z,9.80
2022-12-25T23:08:35.425Z,10.10
2022-12-25T23:11:37.931Z,8.85
2022-12-25T23:14:40.449Z,8.98
2022-12-25T23:18:01.663Z,8.65
2022-12-25T23:21:22.880Z,8.95
2022-12-25T23:24:43.819Z,9.07
2022-12-25T23:27:46.286Z,9.25
2022-12-25T23:30:50.493Z,8.27
2022-12-25T23:33:52.914Z,7.85
2022-12-25T23:36:55.142Z,8.52
2022-12-25T23:39:57.588Z,7.90
2022-12-25T23:42:59.747Z,8.00
2022-12-25T23:46:02.355Z,7.20
2022-12-25T23:49:05.139Z,7.05
2022-12-25T23:52:07.539Z,7.47
2022-12-25T23:55:09.856Z,7.30
2022-12-25T23:58:12.275Z,7.78
